sensor_id;sensor_type;location;lat;lon;timestamp;temperature;humidity
74617;DHT22;63123;50.906;4.198;2023-05-29T00:01:21;18.50;60.20
74617;DHT22;63123;50.906;4.198;2023-05-29T00:03:49;18.50;60.10
74617;DHT22;63123;50.906;4.198;2023-05-29T00:06:15;18.50;60.20
74617;DHT22;63123;50.906;4.198;2023-05-29T00:08:42;18.50;60.20
74617;DHT22;63123;50.906;4.198;2023-05-29T00:11:07;18.50;60.90
74617;DHT22;63123;50.906;4.198;2023-05-29T00:13:33;18.50;60.20
74617;DHT22;63123;50.906;4.198;2023-05-29T00:15:59;18.50;60.20
74617;DHT22;63123;50.906;4.198;2023-05-29T00:18:26;18.50;60.20
74617;DHT22;63123;50.906;4.198;2023-05-29T00:20:52;18.50;60.20
74617;DHT22;63123;50.906;4.198;2023-05-29T00:23:21;18.50;60.30
74617;DHT22;63123;50.906;4.198;2023-05-29T00:25:47;18.50;60.20
74617;DHT22;63123;50.906;4.198;2023-05-29T00:28:13;18.50;60.20
74617;DHT22;63123;50.906;4.198;2023-05-29T00:30:39;18.50;60.20
74617;DHT22;63123;50.906;4.198;2023-05-29T00:33:08;18.50;60.30
74617;DHT22;63123;50.906;4.198;2023-05-29T00:35:34;18.50;60.20
74617;DHT22;63123;50.906;4.198;2023-05-29T00:37:59;18.50;60.20
74617;DHT22;63123;50.906;4.198;2023-05-29T00:40:25;18.50;60.20
74617;DHT22;63123;50.906;4.198;2023-05-29T00:42:51;18.50;60.30
74617;DHT22;63123;50.906;4.198;2023-05-29T00:45:16;18.50;60.30
74617;DHT22;63123;50.906;4.198;2023-05-29T00:47:42;18.50;60.30
74617;DHT22;63123;50.906;4.198;2023-05-29T00:50:10;18.50;60.30
74617;DHT22;63123;50.906;4.198;2023-05-29T00:52:40;18.50;60.30
74617;DHT22;63123;50.906;4.198;2023-05-29T00:55:06;18.50;60.20
74617;DHT22;63123;50.906;4.198;2023-05-29T00:57:34;18.50;60.30
74617;DHT22;63123;50.906;4.198;2023-05-29T01:00:00;18.50;60.30
74617;DHT22;63123;50.906;4.198;2023-05-29T01:02:29;18.50;60.30
74617;DHT22;63123;50.906;4.198;2023-05-29T01:04:57;18.50;60.30
74617;DHT22;63123;50.906;4.198;2023-05-29T01:07:22;18.50;60.90
74617;DHT22;63123;50.906;4.198;2023-05-29T01:09:48;18.50;60.30
74617;DHT22;63123;50.906;4.198;2023-05-29T01:12:36;18.50;60.30
74617;DHT22;63123;50.906;4.198;2023-05-29T01:20:41;18.50;60.90
74617;DHT22;63123;50.906;4.198;2023-05-29T01:28:43;18.50;60.40
74617;DHT22;63123;50.906;4.198;2023-05-29T01:31:11;18.50;60.40
74617;DHT22;63123;50.906;4.198;2023-05-29T01:33:41;18.50;60.40
74617;DHT22;63123;50.906;4.198;2023-05-29T01:36:08;18.50;60.40
74617;DHT22;63123;50.906;4.198;2023-05-29T01:38:34;18.50;60.30
74617;DHT22;63123;50.906;4.198;2023-05-29T01:41:01;18.50;60.30
74617;DHT22;63123;50.906;4.198;2023-05-29T01:43:27;18.50;60.30
74617;DHT22;63123;50.906;4.198;2023-05-29T01:45:53;18.50;60.40
74617;DHT22;63123;50.906;4.198;2023-05-29T01:48:19;18.50;60.40
74617;DHT22;63123;50.906;4.198;2023-05-29T01:50:45;18.50;60.40
74617;DHT22;63123;50.906;4.198;2023-05-29T01:53:12;18.50;60.40
74617;DHT22;63123;50.906;4.198;2023-05-29T01:55:38;18.50;60.40
74617;DHT22;63123;50.906;4.198;2023-05-29T01:58:04;18.50;60.40
74617;DHT22;63123;50.906;4.198;2023-05-29T02:00:30;18.50;60.40
74617;DHT22;63123;50.906;4.198;2023-05-29T02:02:56;18.50;60.40
74617;DHT22;63123;50.906;4.198;2023-05-29T02:05:22;18.50;60.50
74617;DHT22;63123;50.906;4.198;2023-05-29T02:07:47;18.50;60.40
74617;DHT22;63123;50.906;4.198;2023-05-29T02:10:14;18.50;60.40
74617;DHT22;63123;50.906;4.198;2023-05-29T02:12:40;18.50;60.40
74617;DHT22;63123;50.906;4.198;2023-05-29T02:15:07;18.50;60.40
74617;DHT22;63123;50.906;4.198;2023-05-29T02:17:34;18.50;60.40
74617;DHT22;63123;50.906;4.198;2023-05-29T02:20:01;18.50;60.30
74617;DHT22;63123;50.906;4.198;2023-05-29T02:22:27;18.50;60.30
74617;DHT22;63123;50.906;4.198;2023-05-29T02:24:52;18.50;60.40
74617;DHT22;63123;50.906;4.198;2023-05-29T02:27:18;18.50;60.50
74617;DHT22;63123;50.906;4.198;2023-05-29T02:29:44;18.50;60.40
74617;DHT22;63123;50.906;4.198;2023-05-29T02:32:09;18.50;60.40
74617;DHT22;63123;50.906;4.198;2023-05-29T02:34:35;18.50;60.40
74617;DHT22;63123;50.906;4.198;2023-05-29T02:37:01;18.50;60.40
74617;DHT22;63123;50.906;4.198;2023-05-29T02:39:28;18.50;60.30
74617;DHT22;63123;50.906;4.198;2023-05-29T02:41:53;18.50;60.40
74617;DHT22;63123;50.906;4.198;2023-05-29T02:44:20;18.50;60.40
74617;DHT22;63123;50.906;4.198;2023-05-29T02:46:46;18.50;60.30
74617;DHT22;63123;50.906;4.198;2023-05-29T02:49:11;18.50;60.30
74617;DHT22;63123;50.906;4.198;2023-05-29T02:51:37;18.50;60.30
74617;DHT22;63123;50.906;4.198;2023-05-29T02:54:03;18.50;60.30
74617;DHT22;63123;50.906;4.198;2023-05-29T02:56:28;18.50;60.30
74617;DHT22;63123;50.906;4.198;2023-05-29T02:58:57;18.50;60.30
74617;DHT22;63123;50.906;4.198;2023-05-29T03:01:22;18.50;60.30
74617;DHT22;63123;50.906;4.198;2023-05-29T03:03:48;18.50;60.30
74617;DHT22;63123;50.906;4.198;2023-05-29T03:06:14;18.50;60.20
74617;DHT22;63123;50.906;4.198;2023-05-29T03:08:41;18.50;60.30
74617;DHT22;63123;50.906;4.198;2023-05-29T03:11:11;18.50;60.20
74617;DHT22;63123;50.906;4.198;2023-05-29T03:13:37;18.50;60.20
74617;DHT22;63123;50.906;4.198;2023-05-29T03:16:03;18.50;60.10
74617;DHT22;63123;50.906;4.198;2023-05-29T03:18:29;18.50;60.20
74617;DHT22;63123;50.906;4.198;2023-05-29T03:20:55;18.50;60.20
74617;DHT22;63123;50.906;4.198;2023-05-29T03:23:21;18.50;60.10
74617;DHT22;63123;50.906;4.198;2023-05-29T03:25:46;18.50;60.10
74617;DHT22;63123;50.906;4.198;2023-05-29T03:28:12;18.50;60.10
74617;DHT22;63123;50.906;4.198;2023-05-29T03:30:38;18.50;60.10
74617;DHT22;63123;50.906;4.198;2023-05-29T03:33:03;18.50;60.10
74617;DHT22;63123;50.906;4.198;2023-05-29T03:35:31;18.50;60.00
74617;DHT22;63123;50.906;4.198;2023-05-29T03:37:57;18.50;60.00
74617;DHT22;63123;50.906;4.198;2023-05-29T03:40:22;18.50;60.00
74617;DHT22;63123;50.906;4.198;2023-05-29T03:42:48;18.50;60.00
74617;DHT22;63123;50.906;4.198;2023-05-29T03:45:16;18.50;60.00
74617;DHT22;63123;50.906;4.198;2023-05-29T03:47:42;18.50;60.00
74617;DHT22;63123;50.906;4.198;2023-05-29T03:50:08;18.50;59.90
74617;DHT22;63123;50.906;4.198;2023-05-29T03:52:35;18.50;60.00
74617;DHT22;63123;50.906;4.198;2023-05-29T03:55:02;18.50;59.90
74617;DHT22;63123;50.906;4.198;2023-05-29T03:57:28;18.50;59.90
74617;DHT22;63123;50.906;4.198;2023-05-29T03:59:56;18.50;59.90
74617;DHT22;63123;50.906;4.198;2023-05-29T04:02:22;18.50;59.90
74617;DHT22;63123;50.906;4.198;2023-05-29T04:04:47;18.50;59.90
74617;DHT22;63123;50.906;4.198;2023-05-29T04:07:17;18.50;59.80
74617;DHT22;63123;50.906;4.198;2023-05-29T04:09:43;18.50;60.30
74617;DHT22;63123;50.906;4.198;2023-05-29T04:12:09;18.50;59.80
74617;DHT22;63123;50.906;4.198;2023-05-29T04:14:35;18.50;59.80
74617;DHT22;63123;50.906;4.198;2023-05-29T04:17:01;18.50;59.80
74617;DHT22;63123;50.906;4.198;2023-05-29T04:19:28;18.50;59.80
74617;DHT22;63123;50.906;4.198;2023-05-29T04:21:54;18.50;59.80
74617;DHT22;63123;50.906;4.198;2023-05-29T04:24:19;18.50;59.70
74617;DHT22;63123;50.906;4.198;2023-05-29T04:26:45;18.50;59.70
74617;DHT22;63123;50.906;4.198;2023-05-29T04:29:12;18.50;59.70
74617;DHT22;63123;50.906;4.198;2023-05-29T04:31:39;18.50;59.70
74617;DHT22;63123;50.906;4.198;2023-05-29T04:34:07;18.50;59.60
74617;DHT22;63123;50.906;4.198;2023-05-29T04:36:36;18.50;59.60
74617;DHT22;63123;50.906;4.198;2023-05-29T04:39:06;18.50;59.70
74617;DHT22;63123;50.906;4.198;2023-05-29T04:41:32;18.50;59.60
74617;DHT22;63123;50.906;4.198;2023-05-29T04:43:58;18.50;59.50
74617;DHT22;63123;50.906;4.198;2023-05-29T04:46:25;18.50;59.60
74617;DHT22;63123;50.906;4.198;2023-05-29T04:48:52;18.50;59.50
74617;DHT22;63123;50.906;4.198;2023-05-29T04:51:21;18.50;59.50
74617;DHT22;63123;50.906;4.198;2023-05-29T04:53:49;18.50;59.50
74617;DHT22;63123;50.906;4.198;2023-05-29T04:56:17;18.50;59.60
74617;DHT22;63123;50.906;4.198;2023-05-29T04:58:43;18.50;59.50
74617;DHT22;63123;50.906;4.198;2023-05-29T05:01:12;18.50;59.60
74617;DHT22;63123;50.906;4.198;2023-05-29T05:03:40;18.50;59.60
74617;DHT22;63123;50.906;4.198;2023-05-29T05:06:06;18.50;59.50
74617;DHT22;63123;50.906;4.198;2023-05-29T05:08:33;18.50;59.50
74617;DHT22;63123;50.906;4.198;2023-05-29T05:11:00;18.50;59.50
74617;DHT22;63123;50.906;4.198;2023-05-29T05:13:26;18.50;59.50
74617;DHT22;63123;50.906;4.198;2023-05-29T05:15:53;18.50;59.60
74617;DHT22;63123;50.906;4.198;2023-05-29T05:18:19;18.50;59.50
74617;DHT22;63123;50.906;4.198;2023-05-29T05:20:45;18.50;60.10
74617;DHT22;63123;50.906;4.198;2023-05-29T05:23:14;18.50;59.50
74617;DHT22;63123;50.906;4.198;2023-05-29T05:25:43;18.50;59.50
74617;DHT22;63123;50.906;4.198;2023-05-29T05:28:08;18.50;59.50
74617;DHT22;63123;50.906;4.198;2023-05-29T05:30:35;18.50;59.40
74617;DHT22;63123;50.906;4.198;2023-05-29T05:33:02;18.40;59.30
74617;DHT22;63123;50.906;4.198;2023-05-29T05:35:27;18.50;59.50
74617;DHT22;63123;50.906;4.198;2023-05-29T05:37:53;18.50;59.40
74617;DHT22;63123;50.906;4.198;2023-05-29T05:40:20;18.50;59.40
74617;DHT22;63123;50.906;4.198;2023-05-29T05:42:46;18.50;59.40
74617;DHT22;63123;50.906;4.198;2023-05-29T05:45:11;18.50;60.00
74617;DHT22;63123;50.906;4.198;2023-05-29T05:47:37;18.50;59.40
74617;DHT22;63123;50.906;4.198;2023-05-29T05:50:03;18.50;59.40
74617;DHT22;63123;50.906;4.198;2023-05-29T05:52:33;18.50;59.40
74617;DHT22;63123;50.906;4.198;2023-05-29T05:54:59;18.50;59.50
74617;DHT22;63123;50.906;4.198;2023-05-29T05:57:25;18.50;59.40
74617;DHT22;63123;50.906;4.198;2023-05-29T05:59:52;18.50;59.40
74617;DHT22;63123;50.906;4.198;2023-05-29T06:02:18;18.40;59.30
74617;DHT22;63123;50.906;4.198;2023-05-29T06:04:46;18.50;59.40
74617;DHT22;63123;50.906;4.198;2023-05-29T06:07:12;18.50;59.50
74617;DHT22;63123;50.906;4.198;2023-05-29T06:09:38;18.50;59.40
74617;DHT22;63123;50.906;4.198;2023-05-29T06:12:04;18.50;59.40
74617;DHT22;63123;50.906;4.198;2023-05-29T06:14:39;18.50;59.40
74617;DHT22;63123;50.906;4.198;2023-05-29T06:17:04;18.50;59.30
74617;DHT22;63123;50.906;4.198;2023-05-29T06:19:30;18.50;59.40
74617;DHT22;63123;50.906;4.198;2023-05-29T06:21:55;18.50;59.40
74617;DHT22;63123;50.906;4.198;2023-05-29T06:24:21;18.50;59.30
74617;DHT22;63123;50.906;4.198;2023-05-29T06:26:47;18.50;59.40
74617;DHT22;63123;50.906;4.198;2023-05-29T06:29:12;18.50;59.50
74617;DHT22;63123;50.906;4.198;2023-05-29T06:31:38;18.50;59.50
74617;DHT22;63123;50.906;4.198;2023-05-29T06:34:03;18.50;59.30
74617;DHT22;63123;50.906;4.198;2023-05-29T06:36:33;18.50;59.30
74617;DHT22;63123;50.906;4.198;2023-05-29T06:39:00;18.50;59.30
74617;DHT22;63123;50.906;4.198;2023-05-29T06:41:25;18.50;59.30
74617;DHT22;63123;50.906;4.198;2023-05-29T06:43:51;18.50;59.30
74617;DHT22;63123;50.906;4.198;2023-05-29T06:46:18;18.50;59.30
74617;DHT22;63123;50.906;4.198;2023-05-29T06:48:44;18.50;59.30
74617;DHT22;63123;50.906;4.198;2023-05-29T06:51:10;18.50;59.20
74617;DHT22;63123;50.906;4.198;2023-05-29T06:53:38;18.50;59.20
74617;DHT22;63123;50.906;4.198;2023-05-29T06:56:05;18.50;59.20
74617;DHT22;63123;50.906;4.198;2023-05-29T06:58:31;18.50;59.20
74617;DHT22;63123;50.906;4.198;2023-05-29T07:01:06;18.50;59.30
74617;DHT22;63123;50.906;4.198;2023-05-29T07:03:32;18.50;59.40
74617;DHT22;63123;50.906;4.198;2023-05-29T07:06:00;18.50;59.30
74617;DHT22;63123;50.906;4.198;2023-05-29T07:08:27;18.50;59.20
74617;DHT22;63123;50.906;4.198;2023-05-29T07:10:53;18.50;59.20
74617;DHT22;63123;50.906;4.198;2023-05-29T07:13:19;18.50;59.20
74617;DHT22;63123;50.906;4.198;2023-05-29T07:15:48;18.50;59.20
74617;DHT22;63123;50.906;4.198;2023-05-29T07:18:14;18.50;59.20
74617;DHT22;63123;50.906;4.198;2023-05-29T07:20:43;18.50;59.20
74617;DHT22;63123;50.906;4.198;2023-05-29T07:23:08;18.50;59.20
74617;DHT22;63123;50.906;4.198;2023-05-29T07:25:37;18.50;59.20
74617;DHT22;63123;50.906;4.198;2023-05-29T07:28:05;18.50;59.10
74617;DHT22;63123;50.906;4.198;2023-05-29T07:30:31;18.50;59.10
74617;DHT22;63123;50.906;4.198;2023-05-29T07:32:56;18.50;59.70
74617;DHT22;63123;50.906;4.198;2023-05-29T07:35:23;18.60;59.10
74617;DHT22;63123;50.906;4.198;2023-05-29T07:37:49;18.60;59.10
74617;DHT22;63123;50.906;4.198;2023-05-29T07:40:16;18.50;58.90
74617;DHT22;63123;50.906;4.198;2023-05-29T07:42:42;18.60;58.90
74617;DHT22;63123;50.906;4.198;2023-05-29T07:45:08;18.60;58.90
74617;DHT22;63123;50.906;4.198;2023-05-29T07:47:36;18.60;58.70
74617;DHT22;63123;50.906;4.198;2023-05-29T07:50:05;18.60;59.30
74617;DHT22;63123;50.906;4.198;2023-05-29T07:52:32;18.60;58.70
74617;DHT22;63123;50.906;4.198;2023-05-29T07:55:00;18.60;58.70
74617;DHT22;63123;50.906;4.198;2023-05-29T07:57:27;18.60;58.90
74617;DHT22;63123;50.906;4.198;2023-05-29T07:59:53;18.60;58.70
74617;DHT22;63123;50.906;4.198;2023-05-29T08:02:22;18.60;58.70
74617;DHT22;63123;50.906;4.198;2023-05-29T08:04:48;18.60;58.60
74617;DHT22;63123;50.906;4.198;2023-05-29T08:07:13;18.60;58.70
74617;DHT22;63123;50.906;4.198;2023-05-29T08:09:39;18.60;58.70
74617;DHT22;63123;50.906;4.198;2023-05-29T08:12:05;18.60;58.60
74617;DHT22;63123;50.906;4.198;2023-05-29T08:14:34;18.60;58.70
74617;DHT22;63123;50.906;4.198;2023-05-29T08:16:59;18.60;58.70
74617;DHT22;63123;50.906;4.198;2023-05-29T08:19:25;18.60;58.70
74617;DHT22;63123;50.906;4.198;2023-05-29T08:21:51;18.60;58.50
74617;DHT22;63123;50.906;4.198;2023-05-29T08:24:17;18.60;58.60
74617;DHT22;63123;50.906;4.198;2023-05-29T08:26:45;18.60;58.80
74617;DHT22;63123;50.906;4.198;2023-05-29T08:29:12;18.60;59.20
74617;DHT22;63123;50.906;4.198;2023-05-29T08:31:38;18.60;58.60
74617;DHT22;63123;50.906;4.198;2023-05-29T08:34:03;18.70;58.70
74617;DHT22;63123;50.906;4.198;2023-05-29T08:36:29;18.60;58.80
74617;DHT22;63123;50.906;4.198;2023-05-29T08:38:54;18.60;58.60
74617;DHT22;63123;50.906;4.198;2023-05-29T08:41:40;18.70;58.80
74617;DHT22;63123;50.906;4.198;2023-05-29T08:44:08;18.70;58.70
74617;DHT22;63123;50.906;4.198;2023-05-29T08:46:38;18.70;58.60
74617;DHT22;63123;50.906;4.198;2023-05-29T08:49:07;18.70;58.70
74617;DHT22;63123;50.906;4.198;2023-05-29T08:51:37;18.70;58.30
74617;DHT22;63123;50.906;4.198;2023-05-29T08:54:03;18.70;58.30
74617;DHT22;63123;50.906;4.198;2023-05-29T08:56:33;18.70;58.40
74617;DHT22;63123;50.906;4.198;2023-05-29T08:59:01;18.70;58.50
74617;DHT22;63123;50.906;4.198;2023-05-29T09:01:31;18.70;58.20
74617;DHT22;63123;50.906;4.198;2023-05-29T09:03:56;18.70;58.40
74617;DHT22;63123;50.906;4.198;2023-05-29T09:06:23;18.70;58.20
74617;DHT22;63123;50.906;4.198;2023-05-29T09:08:52;18.70;58.50
74617;DHT22;63123;50.906;4.198;2023-05-29T09:11:18;18.80;58.30
74617;DHT22;63123;50.906;4.198;2023-05-29T09:13:46;18.80;58.40
74617;DHT22;63123;50.906;4.198;2023-05-29T09:16:12;18.80;58.50
74617;DHT22;63123;50.906;4.198;2023-05-29T09:18:38;18.80;58.50
74617;DHT22;63123;50.906;4.198;2023-05-29T09:21:07;18.80;58.40
74617;DHT22;63123;50.906;4.198;2023-05-29T09:23:36;18.80;58.40
74617;DHT22;63123;50.906;4.198;2023-05-29T09:26:04;18.80;58.40
74617;DHT22;63123;50.906;4.198;2023-05-29T09:28:30;18.80;58.40
74617;DHT22;63123;50.906;4.198;2023-05-29T09:30:57;18.80;58.00
74617;DHT22;63123;50.906;4.198;2023-05-29T09:33:22;18.80;57.60
74617;DHT22;63123;50.906;4.198;2023-05-29T09:35:49;18.80;57.70
74617;DHT22;63123;50.906;4.198;2023-05-29T09:38:16;18.80;57.40
74617;DHT22;63123;50.906;4.198;2023-05-29T09:40:44;18.80;57.00
74617;DHT22;63123;50.906;4.198;2023-05-29T09:43:17;18.80;56.80
74617;DHT22;63123;50.906;4.198;2023-05-29T09:45:49;18.80;57.20
74617;DHT22;63123;50.906;4.198;2023-05-29T09:48:16;18.90;57.10
74617;DHT22;63123;50.906;4.198;2023-05-29T09:50:43;18.90;57.50
74617;DHT22;63123;50.906;4.198;2023-05-29T09:53:23;18.90;57.20
74617;DHT22;63123;50.906;4.198;2023-05-29T09:55:57;18.80;58.10
74617;DHT22;63123;50.906;4.198;2023-05-29T09:58:24;18.80;58.00
74617;DHT22;63123;50.906;4.198;2023-05-29T10:00:51;18.80;58.30
74617;DHT22;63123;50.906;4.198;2023-05-29T10:03:17;18.80;57.90
74617;DHT22;63123;50.906;4.198;2023-05-29T10:05:47;18.80;58.70
74617;DHT22;63123;50.906;4.198;2023-05-29T10:08:18;18.80;58.40
74617;DHT22;63123;50.906;4.198;2023-05-29T10:10:46;18.80;58.30
74617;DHT22;63123;50.906;4.198;2023-05-29T10:13:14;18.80;58.40
74617;DHT22;63123;50.906;4.198;2023-05-29T10:15:45;18.80;58.50
74617;DHT22;63123;50.906;4.198;2023-05-29T10:18:31;18.80;58.40
74617;DHT22;63123;50.906;4.198;2023-05-29T10:21:00;18.80;58.50
74617;DHT22;63123;50.906;4.198;2023-05-29T10:23:30;18.80;58.40
74617;DHT22;63123;50.906;4.198;2023-05-29T10:26:15;18.80;58.50
74617;DHT22;63123;50.906;4.198;2023-05-29T10:28:44;18.80;58.40
74617;DHT22;63123;50.906;4.198;2023-05-29T10:31:27;18.70;58.40
74617;DHT22;63123;50.906;4.198;2023-05-29T10:36:30;18.70;58.30
74617;DHT22;63123;50.906;4.198;2023-05-29T10:38:58;18.70;58.40
74617;DHT22;63123;50.906;4.198;2023-05-29T10:44:00;18.70;58.30
74617;DHT22;63123;50.906;4.198;2023-05-29T10:49:19;18.80;58.30
74617;DHT22;63123;50.906;4.198;2023-05-29T10:51:45;18.70;58.90
74617;DHT22;63123;50.906;4.198;2023-05-29T10:54:11;18.80;58.20
74617;DHT22;63123;50.906;4.198;2023-05-29T10:56:39;18.70;58.70
74617;DHT22;63123;50.906;4.198;2023-05-29T10:59:07;18.70;57.70
74617;DHT22;63123;50.906;4.198;2023-05-29T11:01:33;18.70;58.20
74617;DHT22;63123;50.906;4.198;2023-05-29T11:06:46;18.70;58.30
74617;DHT22;63123;50.906;4.198;2023-05-29T11:09:47;18.70;58.10
74617;DHT22;63123;50.906;4.198;2023-05-29T11:12:25;18.70;58.20
74617;DHT22;63123;50.906;4.198;2023-05-29T11:15:09;18.70;58.30
74617;DHT22;63123;50.906;4.198;2023-05-29T11:20:06;18.70;58.10
74617;DHT22;63123;50.906;4.198;2023-05-29T11:25:21;18.70;58.00
74617;DHT22;63123;50.906;4.198;2023-05-29T11:27:47;18.70;58.00
74617;DHT22;63123;50.906;4.198;2023-05-29T11:30:13;18.70;58.00
74617;DHT22;63123;50.906;4.198;2023-05-29T11:32:40;18.70;57.70
74617;DHT22;63123;50.906;4.198;2023-05-29T11:35:09;18.70;57.60
74617;DHT22;63123;50.906;4.198;2023-05-29T11:37:36;18.70;57.80
74617;DHT22;63123;50.906;4.198;2023-05-29T11:40:06;18.70;57.30
74617;DHT22;63123;50.906;4.198;2023-05-29T11:42:41;18.80;57.70
74617;DHT22;63123;50.906;4.198;2023-05-29T11:45:20;18.70;57.80
74617;DHT22;63123;50.906;4.198;2023-05-29T11:47:57;18.80;57.90
74617;DHT22;63123;50.906;4.198;2023-05-29T11:50:25;18.70;57.60
74617;DHT22;63123;50.906;4.198;2023-05-29T11:52:51;18.70;57.80
74617;DHT22;63123;50.906;4.198;2023-05-29T11:55:21;18.70;57.80
74617;DHT22;63123;50.906;4.198;2023-05-29T11:57:51;18.80;57.60
74617;DHT22;63123;50.906;4.198;2023-05-29T12:00:40;18.70;57.90
74617;DHT22;63123;50.906;4.198;2023-05-29T12:03:08;18.80;57.50
74617;DHT22;63123;50.906;4.198;2023-05-29T12:05:48;18.80;57.40
74617;DHT22;63123;50.906;4.198;2023-05-29T12:08:14;18.80;57.30
74617;DHT22;63123;50.906;4.198;2023-05-29T12:10:48;18.80;56.80
74617;DHT22;63123;50.906;4.198;2023-05-29T12:13:21;18.80;57.10
74617;DHT22;63123;50.906;4.198;2023-05-29T12:15:52;18.80;57.00
74617;DHT22;63123;50.906;4.198;2023-05-29T12:18:20;18.80;57.00
74617;DHT22;63123;50.906;4.198;2023-05-29T12:20:46;18.80;57.00
74617;DHT22;63123;50.906;4.198;2023-05-29T12:23:11;18.80;57.10
74617;DHT22;63123;50.906;4.198;2023-05-29T12:25:37;18.80;56.90
74617;DHT22;63123;50.906;4.198;2023-05-29T12:28:03;18.80;57.10
74617;DHT22;63123;50.906;4.198;2023-05-29T12:30:30;18.80;56.80
74617;DHT22;63123;50.906;4.198;2023-05-29T12:32:56;18.80;57.10
74617;DHT22;63123;50.906;4.198;2023-05-29T12:35:24;18.80;57.50
74617;DHT22;63123;50.906;4.198;2023-05-29T12:37:55;18.80;57.20
74617;DHT22;63123;50.906;4.198;2023-05-29T12:40:30;18.80;57.20
74617;DHT22;63123;50.906;4.198;2023-05-29T12:43:04;18.80;57.20
74617;DHT22;63123;50.906;4.198;2023-05-29T12:45:32;18.80;57.30
74617;DHT22;63123;50.906;4.198;2023-05-29T12:48:06;18.80;56.80
74617;DHT22;63123;50.906;4.198;2023-05-29T12:50:34;18.90;57.10
74617;DHT22;63123;50.906;4.198;2023-05-29T12:53:00;18.80;56.80
74617;DHT22;63123;50.906;4.198;2023-05-29T12:55:34;18.80;57.10
74617;DHT22;63123;50.906;4.198;2023-05-29T12:58:03;18.90;57.30
74617;DHT22;63123;50.906;4.198;2023-05-29T13:00:29;18.90;56.80
74617;DHT22;63123;50.906;4.198;2023-05-29T13:02:56;18.90;57.10
74617;DHT22;63123;50.906;4.198;2023-05-29T13:05:21;18.90;56.90
74617;DHT22;63123;50.906;4.198;2023-05-29T13:07:49;18.90;57.00
74617;DHT22;63123;50.906;4.198;2023-05-29T13:10:16;18.80;57.30
74617;DHT22;63123;50.906;4.198;2023-05-29T13:12:42;18.80;57.40
74617;DHT22;63123;50.906;4.198;2023-05-29T13:15:09;18.80;57.10
74617;DHT22;63123;50.906;4.198;2023-05-29T13:17:35;18.80;57.50
74617;DHT22;63123;50.906;4.198;2023-05-29T13:20:01;18.80;58.10
74617;DHT22;63123;50.906;4.198;2023-05-29T13:22:26;18.80;57.40
74617;DHT22;63123;50.906;4.198;2023-05-29T13:24:57;18.80;57.70
74617;DHT22;63123;50.906;4.198;2023-05-29T13:27:23;18.80;57.60
74617;DHT22;63123;50.906;4.198;2023-05-29T13:29:50;18.80;57.40
74617;DHT22;63123;50.906;4.198;2023-05-29T13:32:16;18.80;57.70
74617;DHT22;63123;50.906;4.198;2023-05-29T13:34:42;18.80;57.50
74617;DHT22;63123;50.906;4.198;2023-05-29T13:37:07;18.80;57.60
74617;DHT22;63123;50.906;4.198;2023-05-29T13:39:33;18.80;57.40
74617;DHT22;63123;50.906;4.198;2023-05-29T13:41:59;18.80;57.60
74617;DHT22;63123;50.906;4.198;2023-05-29T13:44:25;18.80;57.50
74617;DHT22;63123;50.906;4.198;2023-05-29T13:46:51;18.80;57.40
74617;DHT22;63123;50.906;4.198;2023-05-29T13:49:16;18.80;57.40
74617;DHT22;63123;50.906;4.198;2023-05-29T13:51:42;18.80;57.50
74617;DHT22;63123;50.906;4.198;2023-05-29T13:54:08;18.80;57.40
74617;DHT22;63123;50.906;4.198;2023-05-29T13:56:33;18.80;57.40
74617;DHT22;63123;50.906;4.198;2023-05-29T13:58:59;18.80;57.60
74617;DHT22;63123;50.906;4.198;2023-05-29T14:01:30;18.80;57.40
74617;DHT22;63123;50.906;4.198;2023-05-29T14:03:56;18.80;57.70
74617;DHT22;63123;50.906;4.198;2023-05-29T14:06:21;18.80;57.50
74617;DHT22;63123;50.906;4.198;2023-05-29T14:08:47;18.80;57.50
74617;DHT22;63123;50.906;4.198;2023-05-29T14:11:13;18.80;57.40
74617;DHT22;63123;50.906;4.198;2023-05-29T14:13:38;18.80;57.50
74617;DHT22;63123;50.906;4.198;2023-05-29T14:16:04;18.80;58.00
74617;DHT22;63123;50.906;4.198;2023-05-29T14:18:30;18.80;57.40
74617;DHT22;63123;50.906;4.198;2023-05-29T14:20:56;18.80;57.60
74617;DHT22;63123;50.906;4.198;2023-05-29T14:23:21;18.80;57.60
74617;DHT22;63123;50.906;4.198;2023-05-29T14:25:47;18.80;57.60
74617;DHT22;63123;50.906;4.198;2023-05-29T14:28:13;18.80;57.50
74617;DHT22;63123;50.906;4.198;2023-05-29T14:30:39;18.80;57.60
74617;DHT22;63123;50.906;4.198;2023-05-29T14:33:04;18.80;57.60
74617;DHT22;63123;50.906;4.198;2023-05-29T14:35:30;18.70;57.60
74617;DHT22;63123;50.906;4.198;2023-05-29T14:37:57;18.80;57.80
74617;DHT22;63123;50.906;4.198;2023-05-29T14:40:22;18.80;57.60
74617;DHT22;63123;50.906;4.198;2023-05-29T14:42:48;18.80;57.80
74617;DHT22;63123;50.906;4.198;2023-05-29T14:45:16;18.80;57.40
74617;DHT22;63123;50.906;4.198;2023-05-29T14:47:41;18.80;57.60
74617;DHT22;63123;50.906;4.198;2023-05-29T14:50:07;18.80;57.40
74617;DHT22;63123;50.906;4.198;2023-05-29T14:52:33;18.80;57.50
74617;DHT22;63123;50.906;4.198;2023-05-29T14:55:04;18.80;57.50
74617;DHT22;63123;50.906;4.198;2023-05-29T14:57:29;18.70;57.30
74617;DHT22;63123;50.906;4.198;2023-05-29T14:59:58;18.80;57.50
74617;DHT22;63123;50.906;4.198;2023-05-29T15:02:23;18.80;57.30
74617;DHT22;63123;50.906;4.198;2023-05-29T15:04:49;18.80;57.20
74617;DHT22;63123;50.906;4.198;2023-05-29T15:07:15;18.80;57.40
74617;DHT22;63123;50.906;4.198;2023-05-29T15:09:41;18.70;57.40
74617;DHT22;63123;50.906;4.198;2023-05-29T15:12:08;18.80;57.70
74617;DHT22;63123;50.906;4.198;2023-05-29T15:14:33;18.80;57.60
74617;DHT22;63123;50.906;4.198;2023-05-29T15:17:01;18.80;57.60
74617;DHT22;63123;50.906;4.198;2023-05-29T15:19:27;18.80;57.60
74617;DHT22;63123;50.906;4.198;2023-05-29T15:21:52;18.80;57.70
74617;DHT22;63123;50.906;4.198;2023-05-29T15:24:18;18.80;57.60
74617;DHT22;63123;50.906;4.198;2023-05-29T15:26:44;18.80;57.50
74617;DHT22;63123;50.906;4.198;2023-05-29T15:29:09;18.80;57.70
74617;DHT22;63123;50.906;4.198;2023-05-29T15:31:36;18.80;57.40
74617;DHT22;63123;50.906;4.198;2023-05-29T15:34:01;18.70;57.30
74617;DHT22;63123;50.906;4.198;2023-05-29T15:36:27;18.80;57.30
74617;DHT22;63123;50.906;4.198;2023-05-29T15:38:54;18.70;57.20
74617;DHT22;63123;50.906;4.198;2023-05-29T15:41:20;18.80;57.00
74617;DHT22;63123;50.906;4.198;2023-05-29T15:43:45;18.70;57.00
74617;DHT22;63123;50.906;4.198;2023-05-29T15:46:11;18.70;56.70
74617;DHT22;63123;50.906;4.198;2023-05-29T15:48:37;18.70;56.60
74617;DHT22;63123;50.906;4.198;2023-05-29T15:51:03;18.70;56.60
74617;DHT22;63123;50.906;4.198;2023-05-29T15:53:28;18.70;56.50
74617;DHT22;63123;50.906;4.198;2023-05-29T15:55:54;18.70;56.20
74617;DHT22;63123;50.906;4.198;2023-05-29T15:58:20;18.70;56.30